createdAt,value
2018-08-06T00:00:08.101Z,2.03
2018-08-06T00:02:36.509Z,2.97
2018-08-06T00:05:06.193Z,5.63
2018-08-06T00:07:34.669Z,2.63
2018-08-06T00:10:03.306Z,1.83
2018-08-06T00:12:31.746Z,2.20
2018-08-06T00:15:00.489Z,2.10
2018-08-06T00:17:28.940Z,1.80
2018-08-06T00:19:57.442Z,1.90
2018-08-06T00:22:25.803Z,3.63
2018-08-06T00:24:54.188Z,2.10
2018-08-06T00:27:22.585Z,1.87
2018-08-06T00:29:50.973Z,1.90
2018-08-06T00:32:19.373Z,2.23
2018-08-06T00:34:47.900Z,2.17
2018-08-06T00:37:16.361Z,1.87
2018-08-06T00:39:44.765Z,1.90
2018-08-06T00:42:13.151Z,1.80
2018-08-06T00:44:41.528Z,1.63
2018-08-06T00:47:09.938Z,2.23
2018-08-06T00:49:38.338Z,1.90
2018-08-06T00:52:06.733Z,4.30
2018-08-06T00:54:35.168Z,2.00
2018-08-06T00:57:03.584Z,4.23
2018-08-06T00:59:32.090Z,1.77
2018-08-06T01:02:00.897Z,1.90
2018-08-06T01:04:29.417Z,1.90
2018-08-06T01:06:57.912Z,1.83
2018-08-06T01:09:26.310Z,2.10
2018-08-06T01:11:54.731Z,1.70
2018-08-06T01:14:23.133Z,2.10
2018-08-06T01:16:51.521Z,2.07
2018-08-06T01:19:19.883Z,1.70
2018-08-06T01:21:48.284Z,2.07
2018-08-06T01:24:16.687Z,2.17
2018-08-06T01:26:45.085Z,2.30
2018-08-06T01:29:14.152Z,1.83
2018-08-06T01:31:42.589Z,2.10
2018-08-06T01:34:10.643Z,2.00
2018-08-06T01:36:39.893Z,1.87
2018-08-06T01:39:10.149Z,2.07
2018-08-06T01:41:38.577Z,2.20
2018-08-06T01:44:07.444Z,1.53
2018-08-06T01:46:35.921Z,2.10
2018-08-06T01:49:04.398Z,2.40
2018-08-06T01:51:33.185Z,7.30
2018-08-06T01:54:01.849Z,2.10
2018-08-06T01:56:30.448Z,2.13
2018-08-06T01:58:59.141Z,2.07
2018-08-06T02:01:27.632Z,2.23
2018-08-06T02:03:56.061Z,2.83
2018-08-06T02:06:24.502Z,2.03
2018-08-06T02:08:52.893Z,1.73
2018-08-06T02:11:21.328Z,2.50
2018-08-06T02:13:49.715Z,1.83
2018-08-06T02:16:18.171Z,1.93
2018-08-06T02:18:46.628Z,3.53
2018-08-06T02:21:14.780Z,3.80
2018-08-06T02:23:43.209Z,2.27
2018-08-06T02:26:11.650Z,2.27
2018-08-06T02:28:40.082Z,2.00
2018-08-06T02:31:08.197Z,2.00
2018-08-06T02:33:36.629Z,2.10
2018-08-06T02:36:05.161Z,1.87
2018-08-06T02:38:33.239Z,2.63
2018-08-06T02:41:01.763Z,2.07
2018-08-06T02:43:30.390Z,3.97
2018-08-06T02:45:58.877Z,1.93
2018-08-06T02:48:27.305Z,2.27
2018-08-06T02:50:55.732Z,2.40
2018-08-06T02:53:24.161Z,2.13
2018-08-06T02:55:52.543Z,2.03
2018-08-06T02:58:20.951Z,2.23
2018-08-06T03:00:49.411Z,1.80
2018-08-06T03:03:17.842Z,5.53
2018-08-06T03:05:46.245Z,2.13
2018-08-06T03:08:14.681Z,2.20
2018-08-06T03:10:44.228Z,2.30
2018-08-06T03:13:12.614Z,2.20
2018-08-06T03:15:41.070Z,2.13
2018-08-06T03:18:09.170Z,2.00
2018-08-06T03:20:37.595Z,2.27
2018-08-06T03:23:06.092Z,1.93
2018-08-06T03:25:34.557Z,2.40
2018-08-06T03:28:03.175Z,3.00
2018-08-06T03:30:31.772Z,2.30
2018-08-06T03:33:00.196Z,2.10
2018-08-06T03:35:28.636Z,2.00
2018-08-06T03:37:57.973Z,3.90
2018-08-06T03:40:26.470Z,3.50
2018-08-06T03:42:54.844Z,2.20
2018-08-06T03:45:23.298Z,2.53
2018-08-06T03:47:51.734Z,2.80
2018-08-06T03:50:20.187Z,2.57
2018-08-06T03:52:48.561Z,2.87
2018-08-06T03:55:17.021Z,2.53
2018-08-06T03:57:45.521Z,2.90
2018-08-06T04:00:15.348Z,2.60
2018-08-06T04:02:44.363Z,2.40
2018-08-06T04:05:13.959Z,1.80
2018-08-06T04:07:42.381Z,2.50
2018-08-06T04:10:13.585Z,1.80
2018-08-06T04:12:42.355Z,2.40
2018-08-06T04:15:11.416Z,2.30
2018-08-06T04:17:40.533Z,2.20
2018-08-06T04:20:38.467Z,2.60
2018-08-06T04:23:06.920Z,2.57
2018-08-06T04:25:35.292Z,2.67
2018-08-06T04:28:03.790Z,2.17
2018-08-06T04:30:32.230Z,2.47
2018-08-06T04:33:00.765Z,2.20
2018-08-06T04:35:29.216Z,2.90
2018-08-06T04:37:57.789Z,3.03
2018-08-06T04:40:26.148Z,2.67
2018-08-06T04:42:54.595Z,3.00
2018-08-06T04:45:23.039Z,3.90
2018-08-06T04:47:51.480Z,4.37
2018-08-06T04:50:19.852Z,2.73
2018-08-06T04:52:48.411Z,3.00
2018-08-06T04:55:16.788Z,4.07
2018-08-06T04:57:45.198Z,2.87
2018-08-06T05:00:14.879Z,2.77
2018-08-06T05:02:43.937Z,3.97
2018-08-06T05:05:12.504Z,3.00
2018-08-06T05:07:40.906Z,2.90
2018-08-06T05:10:09.273Z,2.80
2018-08-06T05:12:37.690Z,2.90
2018-08-06T05:15:06.305Z,2.47
2018-08-06T05:17:34.956Z,4.30
2018-08-06T05:20:03.409Z,2.77
2018-08-06T05:22:31.813Z,4.53
2018-08-06T05:25:00.367Z,2.80
2018-08-06T05:27:28.896Z,3.53
2018-08-06T05:29:57.360Z,3.03
2018-08-06T05:32:25.955Z,2.67
2018-08-06T05:34:54.408Z,2.70
2018-08-06T05:37:22.784Z,2.50
2018-08-06T05:39:51.770Z,2.80
2018-08-06T05:42:20.238Z,2.60
2018-08-06T05:44:48.676Z,2.80
2018-08-06T05:47:17.064Z,2.70
2018-08-06T05:49:45.611Z,2.73
2018-08-06T05:52:14.102Z,4.03
2018-08-06T05:54:42.519Z,2.77
2018-08-06T05:57:10.962Z,3.83
2018-08-06T05:59:39.381Z,2.63
2018-08-06T06:02:08.504Z,2.93
2018-08-06T06:04:36.973Z,3.83
2018-08-06T06:07:05.748Z,3.00
2018-08-06T06:09:34.261Z,2.97
2018-08-06T06:12:02.941Z,3.17
2018-08-06T06:14:31.412Z,2.90
2018-08-06T06:17:00.101Z,3.07
2018-08-06T06:19:28.731Z,2.77
2018-08-06T06:21:57.212Z,5.17
2018-08-06T06:24:25.776Z,4.27
2018-08-06T06:26:54.189Z,2.93
2018-08-06T06:29:22.617Z,3.23
2018-08-06T06:31:51.057Z,3.03
2018-08-06T06:34:19.739Z,3.67
2018-08-06T06:36:48.108Z,3.00
2018-08-06T06:39:16.508Z,3.07
2018-08-06T06:41:44.953Z,3.30
2018-08-06T06:44:13.352Z,4.03
2018-08-06T06:46:41.784Z,3.43
2018-08-06T06:49:10.439Z,2.90
2018-08-06T06:51:38.833Z,2.70
2018-08-06T06:54:08.374Z,3.97
2018-08-06T06:56:36.859Z,3.43
2018-08-06T06:59:05.389Z,2.90
2018-08-06T07:01:34.025Z,2.80
2018-08-06T07:04:02.739Z,3.47
2018-08-06T07:06:31.426Z,4.50
2018-08-06T07:08:59.919Z,3.07
2018-08-06T07:11:28.406Z,3.20
2018-08-06T07:13:56.943Z,3.70
2018-08-06T07:16:25.428Z,3.20
2018-08-06T07:18:53.898Z,2.70
2018-08-06T07:21:22.366Z,3.03
2018-08-06T07:23:50.788Z,3.40
2018-08-06T07:26:19.204Z,3.37
2018-08-06T07:28:47.608Z,2.97
2018-08-06T07:31:16.160Z,2.80
2018-08-06T07:33:44.626Z,2.50
2018-08-06T07:36:13.051Z,3.23
2018-08-06T07:38:41.450Z,3.20
2018-08-06T07:41:09.949Z,3.47
2018-08-06T07:43:38.392Z,2.60
2018-08-06T07:46:06.506Z,3.10
2018-08-06T07:48:34.932Z,2.87
2018-08-06T07:51:03.600Z,3.07
2018-08-06T07:53:32.071Z,2.80
2018-08-06T07:56:00.689Z,3.00
2018-08-06T07:58:29.470Z,2.90
2018-08-06T08:00:57.961Z,2.67
2018-08-06T08:03:26.400Z,3.23
2018-08-06T08:05:54.894Z,3.10
2018-08-06T08:08:23.395Z,4.50
2018-08-06T08:10:51.960Z,3.20
2018-08-06T08:13:20.364Z,3.53
2018-08-06T08:15:48.776Z,2.73
2018-08-06T08:18:17.193Z,2.70
2018-08-06T08:20:45.609Z,4.17
2018-08-06T08:23:14.089Z,4.20
2018-08-06T08:25:42.650Z,2.90
2018-08-06T08:28:11.077Z,3.17
2018-08-06T08:30:39.473Z,3.00
2018-08-06T08:33:08.045Z,4.70
2018-08-06T08:35:36.471Z,2.50
2018-08-06T08:38:05.122Z,2.70
2018-08-06T08:40:33.548Z,3.20
2018-08-06T08:43:02.096Z,5.17
2018-08-06T08:45:30.619Z,3.33
2018-08-06T08:47:59.040Z,3.43
2018-08-06T08:50:27.555Z,4.77
2018-08-06T08:52:55.920Z,2.87
2018-08-06T08:55:24.353Z,3.30
2018-08-06T08:57:52.814Z,2.80
2018-08-06T09:00:22.228Z,2.73
2018-08-06T09:02:51.344Z,3.10
2018-08-06T09:05:20.188Z,3.00
2018-08-06T09:07:49.518Z,2.97
2018-08-06T09:10:19.125Z,5.63
2018-08-06T09:12:47.769Z,3.10
2018-08-06T09:15:20.696Z,2.83
2018-08-06T09:17:49.199Z,2.77
2018-08-06T09:20:17.656Z,3.00
2018-08-06T09:22:46.917Z,3.90
2018-08-06T09:25:15.982Z,5.23
2018-08-06T09:27:45.780Z,4.53
2018-08-06T09:30:16.281Z,3.83
2018-08-06T09:32:46.873Z,3.57
2018-08-06T09:35:16.348Z,3.07
2018-08-06T09:37:44.772Z,2.87
2018-08-06T09:40:17.468Z,3.50
2018-08-06T09:42:46.560Z,3.07
2018-08-06T09:45:16.157Z,7.53
2018-08-06T09:47:45.895Z,3.20
2018-08-06T09:50:16.015Z,3.70
2018-08-06T09:52:45.465Z,2.90
2018-08-06T09:55:15.256Z,4.07
2018-08-06T09:57:44.291Z,3.20
2018-08-06T10:00:20.430Z,2.80
2018-08-06T10:02:49.858Z,3.47
2018-08-06T10:05:19.196Z,3.27
2018-08-06T10:07:48.072Z,2.90
2018-08-06T10:10:16.440Z,3.33
2018-08-06T10:12:45.260Z,2.83
2018-08-06T10:15:14.377Z,3.17
2018-08-06T10:17:43.698Z,3.20
2018-08-06T10:20:16.496Z,3.00
2018-08-06T10:22:44.898Z,2.70
2018-08-06T10:25:14.212Z,3.00
2018-08-06T10:27:43.412Z,3.17
2018-08-06T10:30:20.743Z,2.97
2018-08-06T10:32:49.047Z,2.93
2018-08-06T10:35:18.268Z,6.03
2018-08-06T10:37:46.916Z,5.57
2018-08-06T10:40:17.758Z,3.30
2018-08-06T10:42:46.517Z,3.47
2018-08-06T10:45:16.248Z,3.17
2018-08-06T10:47:44.776Z,3.63
2018-08-06T10:50:13.219Z,3.40
2018-08-06T10:52:41.643Z,3.33
2018-08-06T10:55:10.568Z,3.23
2018-08-06T10:57:40.022Z,4.23
2018-08-06T11:00:12.495Z,2.77
2018-08-06T11:02:40.907Z,3.53
2018-08-06T11:05:10.764Z,3.37
2018-08-06T11:07:39.327Z,3.70
2018-08-06T11:10:10.776Z,3.50
2018-08-06T11:12:39.863Z,3.63
2018-08-06T11:15:12.366Z,3.90
2018-08-06T11:17:40.776Z,3.77
2018-08-06T11:20:10.919Z,3.60
2018-08-06T11:22:39.993Z,3.30
2018-08-06T11:25:09.837Z,2.90
2018-08-06T11:27:38.325Z,3.83
2018-08-06T11:30:08.568Z,3.50
2018-08-06T11:32:36.950Z,3.40
2018-08-06T11:35:06.031Z,3.30
2018-08-06T11:37:34.567Z,3.50
2018-08-06T11:40:03.585Z,3.70
2018-08-06T11:42:32.707Z,4.40
2018-08-06T11:45:01.007Z,3.90
2018-08-06T11:47:29.620Z,5.40
2018-08-06T11:49:58.218Z,4.17
2018-08-06T11:52:26.757Z,3.50
2018-08-06T11:54:55.188Z,3.87
2018-08-06T11:57:23.808Z,3.77
2018-08-06T11:59:52.220Z,3.93
2018-08-06T12:02:21.013Z,4.37
2018-08-06T12:04:49.457Z,3.80
2018-08-06T12:07:18.119Z,3.77
2018-08-06T12:09:46.553Z,4.57
2018-08-06T12:12:15.344Z,3.90
2018-08-06T12:14:43.833Z,3.80
2018-08-06T12:17:12.269Z,3.40
2018-08-06T12:19:40.399Z,4.10
2018-08-06T12:22:08.908Z,7.23
2018-08-06T12:24:37.313Z,3.93
2018-08-06T12:27:05.916Z,3.90
2018-08-06T12:29:34.485Z,3.50
2018-08-06T12:32:02.988Z,3.60
2018-08-06T12:34:31.631Z,3.80
2018-08-06T12:36:59.909Z,4.20
2018-08-06T12:39:35.038Z,4.73
2018-08-06T12:42:03.658Z,14.03
2018-08-06T12:44:32.183Z,4.37
2018-08-06T12:47:00.856Z,4.50
2018-08-06T12:49:29.414Z,3.40
2018-08-06T12:51:58.102Z,4.20
2018-08-06T12:54:26.598Z,3.90
2018-08-06T12:56:55.081Z,3.90
2018-08-06T12:59:23.578Z,7.03
2018-08-06T13:01:52.012Z,7.03
2018-08-06T13:04:20.482Z,7.10
2018-08-06T13:06:48.961Z,5.10
2018-08-06T13:09:17.318Z,4.40
2018-08-06T13:11:45.425Z,3.70
2018-08-06T13:14:14.387Z,4.30
2018-08-06T13:16:43.310Z,4.40
2018-08-06T13:19:11.834Z,4.70
2018-08-06T13:21:40.265Z,4.10
2018-08-06T13:24:08.688Z,4.50
2018-08-06T13:26:37.062Z,4.67
2018-08-06T13:29:05.601Z,4.90
2018-08-06T13:31:35.022Z,5.07
2018-08-06T13:34:03.558Z,4.30
2018-08-06T13:36:32.362Z,4.03
2018-08-06T13:39:01.225Z,4.60
2018-08-06T13:41:30.047Z,4.27
2018-08-06T13:43:58.667Z,4.53
2018-08-06T13:46:27.130Z,4.60
2018-08-06T13:48:55.576Z,4.53
2018-08-06T13:51:24.099Z,4.50
2018-08-06T13:53:52.684Z,4.90
2018-08-06T13:56:21.125Z,4.93
2018-08-06T13:58:49.531Z,4.90
2018-08-06T14:01:17.948Z,10.70
2018-08-06T14:03:46.401Z,4.90
2018-08-06T14:06:14.897Z,4.90
2018-08-06T14:08:43.291Z,5.23
2018-08-06T14:11:12.317Z,5.33
2018-08-06T14:13:40.738Z,5.23
2018-08-06T14:16:09.989Z,4.87
2018-08-06T14:18:38.724Z,4.43
2018-08-06T14:21:07.537Z,5.97
2018-08-06T14:23:36.036Z,5.23
2018-08-06T14:26:04.779Z,5.13
2018-08-06T14:28:33.569Z,5.63
2018-08-06T14:31:02.076Z,5.00
2018-08-06T14:33:31.672Z,5.40
2018-08-06T14:36:00.664Z,4.73
2018-08-06T14:38:30.275Z,4.50
2018-08-06T14:41:00.092Z,4.70
2018-08-06T14:43:29.178Z,4.37
2018-08-06T14:45:57.276Z,5.50
2018-08-06T14:48:25.723Z,5.93
2018-08-06T14:50:54.195Z,5.03
2018-08-06T14:53:22.908Z,4.70
2018-08-06T14:55:51.664Z,4.63
2018-08-06T14:58:20.159Z,5.40
2018-08-06T15:00:48.553Z,5.50
2018-08-06T15:03:16.956Z,5.53
2018-08-06T15:05:45.813Z,6.03
2018-08-06T15:08:14.227Z,5.30
2018-08-06T15:10:42.661Z,5.20
2018-08-06T15:13:11.185Z,4.93
2018-08-06T15:15:39.685Z,5.47
2018-08-06T15:18:08.080Z,4.97
2018-08-06T15:20:36.557Z,5.37
2018-08-06T15:23:05.145Z,5.70
2018-08-06T15:25:33.680Z,5.23
2018-08-06T15:28:02.184Z,5.40
2018-08-06T15:30:30.701Z,5.00
2018-08-06T15:32:59.417Z,5.10
2018-08-06T15:35:28.311Z,5.40
2018-08-06T15:37:56.914Z,6.20
2018-08-06T15:40:26.798Z,5.43
2018-08-06T15:42:55.764Z,5.60
2018-08-06T15:45:24.507Z,6.37
2018-08-06T15:47:53.102Z,5.53
2018-08-06T15:50:22.318Z,5.53
2018-08-06T15:52:50.795Z,5.53
2018-08-06T15:55:19.501Z,4.97
2018-08-06T15:57:48.191Z,6.07
2018-08-06T16:00:18.641Z,5.20
2018-08-06T16:02:47.428Z,5.60
2018-08-06T16:05:16.177Z,6.37
2018-08-06T16:07:45.310Z,5.80
2018-08-06T16:10:14.487Z,5.20
2018-08-06T16:12:43.416Z,4.60
2018-08-06T16:15:12.972Z,6.07
2018-08-06T16:17:41.828Z,5.60
2018-08-06T16:20:12.671Z,6.30
2018-08-06T16:22:42.096Z,5.50
2018-08-06T16:25:11.547Z,5.10
2018-08-06T16:27:40.313Z,5.57
2018-08-06T16:30:20.451Z,5.67
2018-08-06T16:32:49.376Z,6.00
2018-08-06T16:35:19.823Z,9.00
2018-08-06T16:37:49.105Z,5.90
2018-08-06T16:40:19.595Z,5.37
2018-08-06T16:42:49.021Z,5.03
2018-08-06T16:45:17.732Z,6.20
2018-08-06T16:47:46.616Z,5.70
2018-08-06T16:50:17.608Z,6.10
2018-08-06T16:52:46.678Z,6.03
2018-08-06T16:55:15.475Z,6.23
2018-08-06T16:57:44.011Z,5.73
2018-08-06T17:00:15.428Z,6.00
2018-08-06T17:02:44.252Z,6.47
2018-08-06T17:05:13.746Z,5.87
2018-08-06T17:07:43.464Z,5.83
2018-08-06T17:10:14.446Z,5.30
2018-08-06T17:12:44.305Z,5.30
2018-08-06T17:15:14.165Z,5.80
2018-08-06T17:17:42.852Z,5.60
2018-08-06T17:20:14.237Z,5.30
2018-08-06T17:22:43.553Z,7.23
2018-08-06T17:25:12.724Z,5.67
2018-08-06T17:27:41.533Z,7.43
2018-08-06T17:30:10.661Z,6.80
2018-08-06T17:32:39.296Z,5.80
2018-08-06T17:35:09.633Z,5.70
2018-08-06T17:37:38.156Z,5.60
2018-08-06T17:40:09.263Z,5.60
2018-08-06T17:42:38.189Z,5.10
2018-08-06T17:45:08.926Z,5.53
2018-08-06T17:47:37.761Z,5.33
2018-08-06T17:50:07.613Z,5.47
2018-08-06T17:52:36.149Z,5.23
2018-08-06T17:55:04.859Z,5.83
2018-08-06T17:57:35.147Z,6.10
2018-08-06T18:00:04.319Z,5.53
2018-08-06T18:02:33.014Z,5.27
2018-08-06T18:05:01.536Z,5.93
2018-08-06T18:07:30.788Z,6.20
2018-08-06T18:09:59.489Z,6.53
2018-08-06T18:12:27.667Z,6.00
2018-08-06T18:14:55.816Z,6.07
2018-08-06T18:17:24.281Z,5.77
2018-08-06T18:19:52.641Z,6.00
2018-08-06T18:22:20.767Z,6.67
2018-08-06T18:24:49.290Z,6.40
2018-08-06T18:27:17.786Z,6.37
2018-08-06T18:29:46.308Z,6.20
2018-08-06T18:32:15.023Z,6.07
2018-08-06T18:34:43.523Z,5.67
2018-08-06T18:37:11.678Z,6.23
2018-08-06T18:39:40.511Z,7.10
2018-08-06T18:42:09.255Z,5.73
2018-08-06T18:44:37.784Z,6.03
2018-08-06T18:47:06.809Z,6.50
2018-08-06T18:49:35.373Z,6.47
2018-08-06T18:52:04.093Z,6.17
2018-08-06T18:54:32.753Z,6.07
2018-08-06T18:57:01.686Z,7.10
2018-08-06T18:59:30.180Z,6.87
2018-08-06T19:01:58.915Z,6.53
2018-08-06T19:04:27.770Z,7.33
2018-08-06T19:06:56.342Z,6.73
2018-08-06T19:09:24.886Z,6.33
2018-08-06T19:11:53.386Z,6.60
2018-08-06T19:14:23.802Z,6.13
2018-08-06T19:16:52.816Z,7.00
2018-08-06T19:19:21.684Z,6.57
2018-08-06T19:21:50.752Z,6.40
2018-08-06T19:24:24.631Z,6.30
2018-08-06T19:26:53.095Z,6.47
2018-08-06T19:29:21.456Z,7.37
2018-08-06T19:31:49.923Z,5.80
2018-08-06T19:34:18.623Z,6.20
2018-08-06T19:36:53.039Z,6.47
2018-08-06T19:39:21.510Z,5.90
2018-08-06T19:41:50.109Z,6.43
2018-08-06T19:44:18.516Z,7.73
2018-08-06T19:46:46.952Z,6.47
2018-08-06T19:49:20.771Z,6.20
2018-08-06T19:51:49.217Z,7.60
2018-08-06T19:54:17.353Z,7.77
2018-08-06T19:56:45.818Z,6.57
2018-08-06T19:59:13.915Z,6.80
2018-08-06T20:01:42.480Z,6.87
2018-08-06T20:04:10.896Z,6.93
2018-08-06T20:06:39.416Z,6.83
2018-08-06T20:09:11.832Z,6.87
2018-08-06T20:11:40.419Z,7.60
2018-08-06T20:14:09.044Z,6.43
2018-08-06T20:16:37.532Z,7.87
2018-08-06T20:19:06.313Z,7.60
2018-08-06T20:21:34.819Z,7.50
2018-08-06T20:24:03.499Z,7.00
2018-08-06T20:26:32.051Z,6.27
2018-08-06T20:29:00.752Z,6.57
2018-08-06T20:31:29.549Z,6.57
2018-08-06T20:33:58.069Z,7.03
2018-08-06T20:36:26.696Z,6.37
2018-08-06T20:38:55.105Z,6.70
2018-08-06T20:41:23.559Z,7.67
2018-08-06T20:43:54.895Z,6.97
2018-08-06T20:52:50.569Z,6.80
2018-08-06T20:55:41.142Z,6.37
2018-08-06T20:58:10.106Z,7.73
2018-08-06T21:00:38.567Z,6.83
2018-08-06T21:03:06.778Z,7.00
2018-08-06T21:05:35.449Z,6.67
2018-08-06T21:08:04.029Z,6.67
2018-08-06T21:10:32.934Z,7.37
2018-08-06T21:13:01.505Z,6.73
2018-08-06T21:15:30.053Z,6.33
2018-08-06T21:17:58.596Z,6.83
2018-08-06T21:20:27.065Z,6.73
2018-08-06T21:22:55.603Z,7.40
2018-08-06T21:25:23.976Z,7.10
2018-08-06T21:27:52.402Z,6.63
2018-08-06T21:30:21.730Z,7.10
2018-08-06T21:32:56.284Z,6.90
2018-08-06T21:35:25.964Z,6.50
2018-08-06T21:37:55.048Z,6.53
2018-08-06T21:40:24.300Z,7.57
2018-08-06T21:42:52.844Z,6.17
2018-08-06T21:45:21.343Z,6.77
2018-08-06T21:47:50.266Z,6.87
2018-08-06T21:50:18.876Z,5.77
2018-08-06T21:52:47.548Z,6.40
2018-08-06T21:55:15.957Z,6.00
2018-08-06T21:57:44.348Z,6.60
2018-08-06T22:00:19.919Z,7.07
2018-08-06T22:02:48.375Z,7.00
2018-08-06T22:05:16.799Z,7.30
2018-08-06T22:07:45.188Z,6.90
2018-08-06T22:10:13.708Z,5.67
2018-08-06T22:12:42.219Z,6.80
2018-08-06T22:15:11.542Z,6.73
2018-08-06T22:17:45.760Z,6.53
2018-08-06T22:20:13.984Z,6.57
2018-08-06T22:22:42.474Z,6.73
2018-08-06T22:25:10.917Z,6.10
2018-08-06T22:27:39.672Z,7.27
2018-08-06T22:30:09.807Z,6.47
2018-08-06T22:32:38.225Z,6.33
2018-08-06T22:35:08.130Z,6.57
2018-08-06T22:37:36.552Z,6.17
2018-08-06T22:40:06.186Z,6.67
2018-08-06T22:42:34.868Z,6.50
2018-08-06T22:45:03.448Z,7.13
2018-08-06T22:47:32.140Z,6.70
2018-08-06T22:50:00.756Z,5.93
2018-08-06T22:52:29.308Z,5.70
2018-08-06T22:54:57.706Z,6.27
2018-08-06T22:57:26.157Z,5.33
2018-08-06T22:59:54.534Z,5.93
2018-08-06T23:02:23.089Z,6.50
2018-08-06T23:04:51.553Z,6.60
2018-08-06T23:07:19.973Z,5.83
2018-08-06T23:09:48.420Z,5.97
2018-08-06T23:12:19.900Z,6.90
2018-08-06T23:14:48.308Z,5.50
2018-08-06T23:17:16.768Z,6.50
2018-08-06T23:19:45.190Z,6.60
2018-08-06T23:22:13.584Z,6.17
2018-08-06T23:24:41.981Z,5.40
2018-08-06T23:27:10.373Z,5.37
2018-08-06T23:29:38.944Z,5.23
2018-08-06T23:32:07.371Z,6.10
2018-08-06T23:34:35.757Z,5.10
2018-08-06T23:37:04.292Z,5.37
2018-08-06T23:39:32.832Z,5.30
2018-08-06T23:42:01.250Z,6.13
2018-08-06T23:44:30.240Z,5.50
2018-08-06T23:46:58.651Z,5.50
2018-08-06T23:49:27.199Z,5.53
2018-08-06T23:51:55.684Z,5.20
2018-08-06T23:54:24.089Z,5.20
2018-08-06T23:56:52.492Z,5.80
2018-08-06T23:59:20.892Z,5.67
